Pagrindinis puslapis
METAR-TAF:

METAR-TAF

Oro uostai :

Trevico, Italija

platuma: 41-03N, ilguma: 015-14E, Aukštis: 1085 m

Dabartinis oras

Ataskaita buvo paskelbta 2 valandos ir 44 minutes, ne 17:55 UTC
Vėjas 6 kt iš Šiaurės Rytų
Temperatūra 10°C
Drėgmė 29%
Slėgis 1021 hPa
Matomumas 10 km arba daugiau
nėra debesų žemiau 1500 m ir nėra kamuolinių lietaus debesų

METAR: LIRT 091755Z 05006KT CAVOK 10/M07 Q1021 RMK SKC MON LIB VAL NIL VIS MIN 9999

Laikas: 22:39 (20:39 UTC)


TAF: trūkstamas

Orai ataskaitas ir orų prognozės (METAR, TAF).

turimą stotys yra geltonos ir raudonos taškus žemėlapyje.

Perkelti pele per norėdami pamatyti stoties vardą.

Tada spustelėkite, norėdami matyti oro stebėjimo ir prognozės.

Norėdami pakeisti žemėlapį: spustelėkite ant žalios mygtukų su juodo kryžiaus žemyn,; žalią mygtuką su brūkšneliu, jei norite nutolinti; arba žalių rodyklių gretimoms žemėlapius.


METAR-TAF: